sensor_id;sensor_type;location;lat;lon;timestamp;temperature;humidity
64501;DHT22;50874;24.150;-110.320;2023-04-24T00:01:19;36.30;36.70
64501;DHT22;50874;24.150;-110.320;2023-04-24T00:03:45;36.20;36.20
64501;DHT22;50874;24.150;-110.320;2023-04-24T00:06:12;36.20;36.70
64501;DHT22;50874;24.150;-110.320;2023-04-24T00:08:38;36.10;35.80
64501;DHT22;50874;24.150;-110.320;2023-04-24T00:11:05;36.10;35.70
64501;DHT22;50874;24.150;-110.320;2023-04-24T00:13:31;36.10;35.80
64501;DHT22;50874;24.150;-110.320;2023-04-24T00:15:57;36.00;36.50
64501;DHT22;50874;24.150;-110.320;2023-04-24T00:18:24;35.90;36.20
64501;DHT22;50874;24.150;-110.320;2023-04-24T00:20:50;36.00;35.50
64501;DHT22;50874;24.150;-110.320;2023-04-24T00:23:17;36.10;35.40
64501;DHT22;50874;24.150;-110.320;2023-04-24T00:25:43;35.90;35.60
64501;DHT22;50874;24.150;-110.320;2023-04-24T00:28:10;35.90;35.80
64501;DHT22;50874;24.150;-110.320;2023-04-24T00:30:36;35.50;35.70
64501;DHT22;50874;24.150;-110.320;2023-04-24T00:33:03;35.30;35.20
64501;DHT22;50874;24.150;-110.320;2023-04-24T00:35:29;35.30;35.20
64501;DHT22;50874;24.150;-110.320;2023-04-24T00:37:56;35.10;35.60
64501;DHT22;50874;24.150;-110.320;2023-04-24T00:40:22;35.10;35.50
64501;DHT22;50874;24.150;-110.320;2023-04-24T00:42:49;35.20;36.00
64501;DHT22;50874;24.150;-110.320;2023-04-24T00:45:15;35.10;36.10
64501;DHT22;50874;24.150;-110.320;2023-04-24T00:47:42;34.80;36.00
64501;DHT22;50874;24.150;-110.320;2023-04-24T00:50:09;34.80;36.50
64501;DHT22;50874;24.150;-110.320;2023-04-24T00:52:35;34.80;37.10
64501;DHT22;50874;24.150;-110.320;2023-04-24T00:55:03;34.60;36.80
64501;DHT22;50874;24.150;-110.320;2023-04-24T00:57:30;34.40;37.70
64501;DHT22;50874;24.150;-110.320;2023-04-24T00:59:56;34.20;37.70
64501;DHT22;50874;24.150;-110.320;2023-04-24T01:02:26;34.10;37.90
64501;DHT22;50874;24.150;-110.320;2023-04-24T01:04:52;34.00;38.00
64501;DHT22;50874;24.150;-110.320;2023-04-24T01:07:20;33.90;37.80
64501;DHT22;50874;24.150;-110.320;2023-04-24T01:09:48;33.80;38.60
64501;DHT22;50874;24.150;-110.320;2023-04-24T01:12:16;33.60;38.90
64501;DHT22;50874;24.150;-110.320;2023-04-24T01:14:43;33.50;38.90
64501;DHT22;50874;24.150;-110.320;2023-04-24T01:17:10;33.40;39.00
64501;DHT22;50874;24.150;-110.320;2023-04-24T01:19:37;33.40;39.60
64501;DHT22;50874;24.150;-110.320;2023-04-24T01:22:11;33.30;39.60
64501;DHT22;50874;24.150;-110.320;2023-04-24T01:24:39;33.20;39.60
64501;DHT22;50874;24.150;-110.320;2023-04-24T01:27:06;33.10;39.80
64501;DHT22;50874;24.150;-110.320;2023-04-24T01:29:32;33.00;40.00
64501;DHT22;50874;24.150;-110.320;2023-04-24T01:32:00;32.80;40.70
64501;DHT22;50874;24.150;-110.320;2023-04-24T01:34:30;32.70;41.50
64501;DHT22;50874;24.150;-110.320;2023-04-24T01:36:56;32.60;41.80
64501;DHT22;50874;24.150;-110.320;2023-04-24T01:39:23;32.40;41.40
64501;DHT22;50874;24.150;-110.320;2023-04-24T01:41:52;32.30;44.00
64501;DHT22;50874;24.150;-110.320;2023-04-24T01:44:19;32.10;44.20
64501;DHT22;50874;24.150;-110.320;2023-04-24T01:46:46;31.90;44.30
64501;DHT22;50874;24.150;-110.320;2023-04-24T01:49:12;31.80;44.80
64501;DHT22;50874;24.150;-110.320;2023-04-24T01:51:39;31.70;45.90
64501;DHT22;50874;24.150;-110.320;2023-04-24T01:54:05;31.60;46.30
64501;DHT22;50874;24.150;-110.320;2023-04-24T01:56:34;31.60;46.60
64501;DHT22;50874;24.150;-110.320;2023-04-24T01:59:03;31.30;47.50
64501;DHT22;50874;24.150;-110.320;2023-04-24T02:01:36;31.20;48.20
64501;DHT22;50874;24.150;-110.320;2023-04-24T02:04:04;31.10;49.00
64501;DHT22;50874;24.150;-110.320;2023-04-24T02:06:31;30.90;49.80
64501;DHT22;50874;24.150;-110.320;2023-04-24T02:08:58;30.80;51.20
64501;DHT22;50874;24.150;-110.320;2023-04-24T02:11:25;30.70;51.50
64501;DHT22;50874;24.150;-110.320;2023-04-24T02:13:52;30.60;52.60
64501;DHT22;50874;24.150;-110.320;2023-04-24T02:16:19;30.40;53.20
64501;DHT22;50874;24.150;-110.320;2023-04-24T02:18:45;30.30;54.20
64501;DHT22;50874;24.150;-110.320;2023-04-24T02:21:12;30.10;54.90
64501;DHT22;50874;24.150;-110.320;2023-04-24T02:23:38;30.10;55.70
64501;DHT22;50874;24.150;-110.320;2023-04-24T02:26:05;29.90;56.90
64501;DHT22;50874;24.150;-110.320;2023-04-24T02:28:31;29.80;57.60
64501;DHT22;50874;24.150;-110.320;2023-04-24T02:30:58;29.60;58.50
64501;DHT22;50874;24.150;-110.320;2023-04-24T02:33:25;29.40;58.90
64501;DHT22;50874;24.150;-110.320;2023-04-24T02:35:52;29.40;59.20
64501;DHT22;50874;24.150;-110.320;2023-04-24T02:38:18;29.20;59.90
64501;DHT22;50874;24.150;-110.320;2023-04-24T02:40:45;29.00;60.90
64501;DHT22;50874;24.150;-110.320;2023-04-24T02:43:11;28.80;62.00
64501;DHT22;50874;24.150;-110.320;2023-04-24T02:45:37;28.60;62.60
64501;DHT22;50874;24.150;-110.320;2023-04-24T02:48:04;28.50;62.50
64501;DHT22;50874;24.150;-110.320;2023-04-24T02:50:30;28.30;63.10
64501;DHT22;50874;24.150;-110.320;2023-04-24T02:52:57;28.20;63.40
64501;DHT22;50874;24.150;-110.320;2023-04-24T02:55:24;28.10;63.20
64501;DHT22;50874;24.150;-110.320;2023-04-24T02:57:51;27.90;63.40
64501;DHT22;50874;24.150;-110.320;2023-04-24T03:00:17;27.80;63.70
64501;DHT22;50874;24.150;-110.320;2023-04-24T03:02:44;27.70;63.20
64501;DHT22;50874;24.150;-110.320;2023-04-24T03:05:10;27.60;62.10
64501;DHT22;50874;24.150;-110.320;2023-04-24T03:07:38;27.50;62.00
64501;DHT22;50874;24.150;-110.320;2023-04-24T03:10:05;27.40;61.40
64501;DHT22;50874;24.150;-110.320;2023-04-24T03:12:32;27.30;61.30
64501;DHT22;50874;24.150;-110.320;2023-04-24T03:14:58;27.30;60.60
64501;DHT22;50874;24.150;-110.320;2023-04-24T03:17:25;27.20;60.20
64501;DHT22;50874;24.150;-110.320;2023-04-24T03:19:51;27.20;60.30
64501;DHT22;50874;24.150;-110.320;2023-04-24T03:22:18;27.20;60.00
64501;DHT22;50874;24.150;-110.320;2023-04-24T03:24:44;27.10;59.70
64501;DHT22;50874;24.150;-110.320;2023-04-24T03:27:11;27.00;59.80
64501;DHT22;50874;24.150;-110.320;2023-04-24T03:29:37;27.00;62.70
64501;DHT22;50874;24.150;-110.320;2023-04-24T03:32:04;26.90;66.00
64501;DHT22;50874;24.150;-110.320;2023-04-24T03:34:30;26.90;68.70
64501;DHT22;50874;24.150;-110.320;2023-04-24T03:36:56;26.90;71.50
64501;DHT22;50874;24.150;-110.320;2023-04-24T03:39:23;26.70;72.70
64501;DHT22;50874;24.150;-110.320;2023-04-24T03:41:51;26.70;74.00
64501;DHT22;50874;24.150;-110.320;2023-04-24T03:44:17;26.50;77.50
64501;DHT22;50874;24.150;-110.320;2023-04-24T03:46:44;26.40;78.80
64501;DHT22;50874;24.150;-110.320;2023-04-24T03:49:10;26.30;78.50
64501;DHT22;50874;24.150;-110.320;2023-04-24T03:51:36;26.10;78.80
64501;DHT22;50874;24.150;-110.320;2023-04-24T03:54:03;26.10;82.10
64501;DHT22;50874;24.150;-110.320;2023-04-24T03:56:29;25.90;87.30
64501;DHT22;50874;24.150;-110.320;2023-04-24T03:58:56;25.70;90.10
64501;DHT22;50874;24.150;-110.320;2023-04-24T04:01:22;25.60;90.90
64501;DHT22;50874;24.150;-110.320;2023-04-24T04:03:50;25.50;91.70
64501;DHT22;50874;24.150;-110.320;2023-04-24T04:06:16;25.40;91.80
64501;DHT22;50874;24.150;-110.320;2023-04-24T04:08:42;25.40;91.90
64501;DHT22;50874;24.150;-110.320;2023-04-24T04:11:09;25.30;91.70
64501;DHT22;50874;24.150;-110.320;2023-04-24T04:13:35;25.10;91.80
64501;DHT22;50874;24.150;-110.320;2023-04-24T04:16:02;25.10;92.00
64501;DHT22;50874;24.150;-110.320;2023-04-24T04:18:28;25.10;91.70
64501;DHT22;50874;24.150;-110.320;2023-04-24T04:20:55;25.00;92.20
64501;DHT22;50874;24.150;-110.320;2023-04-24T04:23:23;25.00;92.50
64501;DHT22;50874;24.150;-110.320;2023-04-24T04:25:49;24.90;92.70
64501;DHT22;50874;24.150;-110.320;2023-04-24T04:28:15;24.80;93.40
64501;DHT22;50874;24.150;-110.320;2023-04-24T04:30:45;24.70;92.80
64501;DHT22;50874;24.150;-110.320;2023-04-24T04:33:13;24.60;92.50
64501;DHT22;50874;24.150;-110.320;2023-04-24T04:35:40;24.50;92.20
64501;DHT22;50874;24.150;-110.320;2023-04-24T04:38:07;24.40;93.00
64501;DHT22;50874;24.150;-110.320;2023-04-24T04:40:34;24.30;93.30
64501;DHT22;50874;24.150;-110.320;2023-04-24T04:43:00;24.30;93.30
64501;DHT22;50874;24.150;-110.320;2023-04-24T04:45:27;24.20;93.90
64501;DHT22;50874;24.150;-110.320;2023-04-24T04:47:54;24.00;94.40
64501;DHT22;50874;24.150;-110.320;2023-04-24T04:50:21;24.00;94.50
64501;DHT22;50874;24.150;-110.320;2023-04-24T04:52:48;23.90;94.40
64501;DHT22;50874;24.150;-110.320;2023-04-24T04:55:15;23.90;93.70
64501;DHT22;50874;24.150;-110.320;2023-04-24T04:57:41;23.80;93.50
64501;DHT22;50874;24.150;-110.320;2023-04-24T05:00:08;23.80;93.00
64501;DHT22;50874;24.150;-110.320;2023-04-24T05:02:36;23.70;93.00
64501;DHT22;50874;24.150;-110.320;2023-04-24T05:05:03;23.60;93.10
64501;DHT22;50874;24.150;-110.320;2023-04-24T05:07:29;23.60;92.50
64501;DHT22;50874;24.150;-110.320;2023-04-24T05:09:56;23.60;92.50
64501;DHT22;50874;24.150;-110.320;2023-04-24T05:12:22;23.60;92.50
64501;DHT22;50874;24.150;-110.320;2023-04-24T05:14:49;23.60;92.50
64501;DHT22;50874;24.150;-110.320;2023-04-24T05:17:15;23.60;92.50
64501;DHT22;50874;24.150;-110.320;2023-04-24T05:19:42;23.40;92.70
64501;DHT22;50874;24.150;-110.320;2023-04-24T05:22:09;23.40;93.10
64501;DHT22;50874;24.150;-110.320;2023-04-24T05:24:37;23.30;93.10
64501;DHT22;50874;24.150;-110.320;2023-04-24T05:27:04;23.20;93.10
64501;DHT22;50874;24.150;-110.320;2023-04-24T05:29:31;23.20;92.80
64501;DHT22;50874;24.150;-110.320;2023-04-24T05:31:59;23.30;92.50
64501;DHT22;50874;24.150;-110.320;2023-04-24T05:34:26;23.20;92.50
64501;DHT22;50874;24.150;-110.320;2023-04-24T05:36:53;23.10;92.60
64501;DHT22;50874;24.150;-110.320;2023-04-24T05:39:19;23.10;92.40
64501;DHT22;50874;24.150;-110.320;2023-04-24T05:41:46;23.10;92.20
64501;DHT22;50874;24.150;-110.320;2023-04-24T05:44:12;23.10;92.10
64501;DHT22;50874;24.150;-110.320;2023-04-24T05:46:39;23.00;92.00
64501;DHT22;50874;24.150;-110.320;2023-04-24T05:49:05;23.00;92.00
64501;DHT22;50874;24.150;-110.320;2023-04-24T05:51:32;22.90;92.10
64501;DHT22;50874;24.150;-110.320;2023-04-24T05:53:58;22.90;92.20
64501;DHT22;50874;24.150;-110.320;2023-04-24T05:56:25;22.90;92.20
64501;DHT22;50874;24.150;-110.320;2023-04-24T05:58:51;22.80;92.30
64501;DHT22;50874;24.150;-110.320;2023-04-24T06:01:18;22.80;92.30
64501;DHT22;50874;24.150;-110.320;2023-04-24T06:03:45;22.80;92.20
64501;DHT22;50874;24.150;-110.320;2023-04-24T06:06:12;22.80;92.10
64501;DHT22;50874;24.150;-110.320;2023-04-24T06:08:38;22.70;92.00
64501;DHT22;50874;24.150;-110.320;2023-04-24T06:11:05;22.70;91.90
64501;DHT22;50874;24.150;-110.320;2023-04-24T06:13:31;22.60;92.10
64501;DHT22;50874;24.150;-110.320;2023-04-24T06:15:57;22.60;91.70
64501;DHT22;50874;24.150;-110.320;2023-04-24T06:18:24;22.60;91.60
64501;DHT22;50874;24.150;-110.320;2023-04-24T06:20:50;22.60;91.50
64501;DHT22;50874;24.150;-110.320;2023-04-24T06:23:17;22.60;91.50
64501;DHT22;50874;24.150;-110.320;2023-04-24T06:25:44;22.50;91.30
64501;DHT22;50874;24.150;-110.320;2023-04-24T06:28:10;22.50;91.30
64501;DHT22;50874;24.150;-110.320;2023-04-24T06:30:37;22.50;91.40
64501;DHT22;50874;24.150;-110.320;2023-04-24T06:33:03;22.50;91.40
64501;DHT22;50874;24.150;-110.320;2023-04-24T06:35:30;22.50;91.40
64501;DHT22;50874;24.150;-110.320;2023-04-24T06:37:56;22.40;91.60
64501;DHT22;50874;24.150;-110.320;2023-04-24T06:40:23;22.40;92.10
64501;DHT22;50874;24.150;-110.320;2023-04-24T06:42:50;22.30;92.50
64501;DHT22;50874;24.150;-110.320;2023-04-24T06:45:17;22.30;92.40
64501;DHT22;50874;24.150;-110.320;2023-04-24T06:47:43;22.20;92.70
64501;DHT22;50874;24.150;-110.320;2023-04-24T06:50:10;22.10;92.80
64501;DHT22;50874;24.150;-110.320;2023-04-24T06:52:37;22.10;93.00
64501;DHT22;50874;24.150;-110.320;2023-04-24T06:55:04;22.10;93.10
64501;DHT22;50874;24.150;-110.320;2023-04-24T06:57:31;22.00;93.20
64501;DHT22;50874;24.150;-110.320;2023-04-24T06:59:58;22.00;93.10
64501;DHT22;50874;24.150;-110.320;2023-04-24T07:02:25;21.90;93.00
64501;DHT22;50874;24.150;-110.320;2023-04-24T07:04:51;21.90;92.90
64501;DHT22;50874;24.150;-110.320;2023-04-24T07:07:18;21.90;92.70
64501;DHT22;50874;24.150;-110.320;2023-04-24T07:09:45;21.90;92.30
64501;DHT22;50874;24.150;-110.320;2023-04-24T07:12:11;21.90;92.40
64501;DHT22;50874;24.150;-110.320;2023-04-24T07:14:39;21.90;92.00
64501;DHT22;50874;24.150;-110.320;2023-04-24T07:17:06;21.90;91.70
64501;DHT22;50874;24.150;-110.320;2023-04-24T07:19:33;21.80;91.70
64501;DHT22;50874;24.150;-110.320;2023-04-24T07:22:01;21.80;91.50
64501;DHT22;50874;24.150;-110.320;2023-04-24T07:24:29;21.80;91.30
64501;DHT22;50874;24.150;-110.320;2023-04-24T07:26:58;21.80;91.30
64501;DHT22;50874;24.150;-110.320;2023-04-24T07:29:27;21.70;91.30
64501;DHT22;50874;24.150;-110.320;2023-04-24T07:31:53;21.70;91.10
64501;DHT22;50874;24.150;-110.320;2023-04-24T07:34:20;21.70;91.10
64501;DHT22;50874;24.150;-110.320;2023-04-24T07:36:46;21.70;90.70
64501;DHT22;50874;24.150;-110.320;2023-04-24T07:39:13;21.60;90.40
64501;DHT22;50874;24.150;-110.320;2023-04-24T07:41:39;21.60;90.30
64501;DHT22;50874;24.150;-110.320;2023-04-24T07:44:06;21.60;90.30
64501;DHT22;50874;24.150;-110.320;2023-04-24T07:46:33;21.60;90.10
64501;DHT22;50874;24.150;-110.320;2023-04-24T07:49:00;21.50;89.90
64501;DHT22;50874;24.150;-110.320;2023-04-24T07:51:27;21.50;89.80
64501;DHT22;50874;24.150;-110.320;2023-04-24T07:53:54;21.50;89.60
64501;DHT22;50874;24.150;-110.320;2023-04-24T07:56:23;21.50;89.50
64501;DHT22;50874;24.150;-110.320;2023-04-24T07:58:49;21.40;89.60
64501;DHT22;50874;24.150;-110.320;2023-04-24T08:01:16;21.40;89.90
64501;DHT22;50874;24.150;-110.320;2023-04-24T08:03:42;21.40;90.10
64501;DHT22;50874;24.150;-110.320;2023-04-24T08:06:09;21.30;90.20
64501;DHT22;50874;24.150;-110.320;2023-04-24T08:08:35;21.30;90.20
64501;DHT22;50874;24.150;-110.320;2023-04-24T08:11:02;21.30;90.30
64501;DHT22;50874;24.150;-110.320;2023-04-24T08:13:28;21.20;90.50
64501;DHT22;50874;24.150;-110.320;2023-04-24T08:15:56;21.10;90.40
64501;DHT22;50874;24.150;-110.320;2023-04-24T08:18:23;21.10;90.90
64501;DHT22;50874;24.150;-110.320;2023-04-24T08:20:50;21.00;90.60
64501;DHT22;50874;24.150;-110.320;2023-04-24T08:23:16;20.90;90.80
64501;DHT22;50874;24.150;-110.320;2023-04-24T08:25:43;20.90;91.00
64501;DHT22;50874;24.150;-110.320;2023-04-24T08:28:09;20.90;91.30
64501;DHT22;50874;24.150;-110.320;2023-04-24T08:30:36;20.80;91.30
64501;DHT22;50874;24.150;-110.320;2023-04-24T08:33:04;20.80;91.30
64501;DHT22;50874;24.150;-110.320;2023-04-24T08:35:30;20.80;91.40
64501;DHT22;50874;24.150;-110.320;2023-04-24T08:37:57;20.70;91.50
64501;DHT22;50874;24.150;-110.320;2023-04-24T08:40:28;20.60;91.90
64501;DHT22;50874;24.150;-110.320;2023-04-24T08:42:56;20.60;92.10
64501;DHT22;50874;24.150;-110.320;2023-04-24T08:45:23;20.50;92.40
64501;DHT22;50874;24.150;-110.320;2023-04-24T08:47:52;20.40;92.70
64501;DHT22;50874;24.150;-110.320;2023-04-24T08:50:21;20.30;93.30
64501;DHT22;50874;24.150;-110.320;2023-04-24T08:52:50;20.30;94.00
64501;DHT22;50874;24.150;-110.320;2023-04-24T08:55:19;20.10;95.60
64501;DHT22;50874;24.150;-110.320;2023-04-24T08:57:51;20.00;99.90
64501;DHT22;50874;24.150;-110.320;2023-04-24T09:00:19;20.00;99.90
64501;DHT22;50874;24.150;-110.320;2023-04-24T09:02:51;19.90;99.90
64501;DHT22;50874;24.150;-110.320;2023-04-24T09:05:18;20.00;99.90
64501;DHT22;50874;24.150;-110.320;2023-04-24T09:07:54;19.90;99.90
64501;DHT22;50874;24.150;-110.320;2023-04-24T09:10:22;19.90;99.90
64501;DHT22;50874;24.150;-110.320;2023-04-24T09:12:50;19.90;99.90
64501;DHT22;50874;24.150;-110.320;2023-04-24T09:15:19;19.80;99.90
64501;DHT22;50874;24.150;-110.320;2023-04-24T09:17:46;19.80;99.90
64501;DHT22;50874;24.150;-110.320;2023-04-24T09:20:13;19.80;99.90
64501;DHT22;50874;24.150;-110.320;2023-04-24T09:22:41;19.80;99.90
64501;DHT22;50874;24.150;-110.320;2023-04-24T09:25:08;19.80;99.90
64501;DHT22;50874;24.150;-110.320;2023-04-24T09:27:35;19.90;99.90
64501;DHT22;50874;24.150;-110.320;2023-04-24T09:30:02;19.80;99.90
64501;DHT22;50874;24.150;-110.320;2023-04-24T09:32:29;19.90;99.90
64501;DHT22;50874;24.150;-110.320;2023-04-24T09:37:47;19.90;99.90
64501;DHT22;50874;24.150;-110.320;2023-04-24T09:40:21;19.90;99.90
64501;DHT22;50874;24.150;-110.320;2023-04-24T09:42:56;19.90;99.90
64501;DHT22;50874;24.150;-110.320;2023-04-24T09:45:27;19.90;99.90
64501;DHT22;50874;24.150;-110.320;2023-04-24T09:47:55;19.90;99.90
64501;DHT22;50874;24.150;-110.320;2023-04-24T09:50:22;20.00;99.90
64501;DHT22;50874;24.150;-110.320;2023-04-24T09:52:59;20.00;99.90
64501;DHT22;50874;24.150;-110.320;2023-04-24T09:55:27;20.10;99.90
64501;DHT22;50874;24.150;-110.320;2023-04-24T09:57:58;20.10;99.90
64501;DHT22;50874;24.150;-110.320;2023-04-24T10:00:30;20.10;99.90
64501;DHT22;50874;24.150;-110.320;2023-04-24T10:03:04;20.10;99.90
64501;DHT22;50874;24.150;-110.320;2023-04-24T10:05:36;20.30;99.90
64501;DHT22;50874;24.150;-110.320;2023-04-24T10:08:05;20.30;99.90
64501;DHT22;50874;24.150;-110.320;2023-04-24T10:10:33;20.30;99.90
64501;DHT22;50874;24.150;-110.320;2023-04-24T10:13:00;20.30;99.90
64501;DHT22;50874;24.150;-110.320;2023-04-24T10:15:27;20.30;99.90
64501;DHT22;50874;24.150;-110.320;2023-04-24T10:17:54;20.20;99.60
64501;DHT22;50874;24.150;-110.320;2023-04-24T10:20:22;20.30;98.60
64501;DHT22;50874;24.150;-110.320;2023-04-24T10:22:51;20.30;98.00
64501;DHT22;50874;24.150;-110.320;2023-04-24T10:25:20;20.20;96.40
64501;DHT22;50874;24.150;-110.320;2023-04-24T10:27:48;20.10;96.10
64501;DHT22;50874;24.150;-110.320;2023-04-24T10:30:16;20.00;96.00
64501;DHT22;50874;24.150;-110.320;2023-04-24T10:32:42;19.90;95.90
64501;DHT22;50874;24.150;-110.320;2023-04-24T10:35:13;19.70;95.90
64501;DHT22;50874;24.150;-110.320;2023-04-24T10:38:05;19.70;95.90
64501;DHT22;50874;24.150;-110.320;2023-04-24T10:40:33;19.50;95.80
64501;DHT22;50874;24.150;-110.320;2023-04-24T10:43:02;19.50;95.60
64501;DHT22;50874;24.150;-110.320;2023-04-24T10:45:32;19.40;95.30
64501;DHT22;50874;24.150;-110.320;2023-04-24T10:48:03;19.40;95.30
64501;DHT22;50874;24.150;-110.320;2023-04-24T10:50:43;19.40;94.60
64501;DHT22;50874;24.150;-110.320;2023-04-24T10:53:16;19.40;94.20
64501;DHT22;50874;24.150;-110.320;2023-04-24T10:58:11;19.30;93.40
64501;DHT22;50874;24.150;-110.320;2023-04-24T11:00:41;19.30;92.70
64501;DHT22;50874;24.150;-110.320;2023-04-24T11:03:29;19.40;92.10
64501;DHT22;50874;24.150;-110.320;2023-04-24T11:06:03;19.50;91.90
64501;DHT22;50874;24.150;-110.320;2023-04-24T11:08:48;19.40;91.80
64501;DHT22;50874;24.150;-110.320;2023-04-24T11:11:17;19.40;91.30
64501;DHT22;50874;24.150;-110.320;2023-04-24T11:21:39;19.20;90.80
64501;DHT22;50874;24.150;-110.320;2023-04-24T11:26:55;19.10;90.70
64501;DHT22;50874;24.150;-110.320;2023-04-24T11:29:23;19.10;90.50
64501;DHT22;50874;24.150;-110.320;2023-04-24T11:34:53;19.00;90.40
64501;DHT22;50874;24.150;-110.320;2023-04-24T11:37:21;19.00;90.70
64501;DHT22;50874;24.150;-110.320;2023-04-24T11:39:51;18.90;90.20
64501;DHT22;50874;24.150;-110.320;2023-04-24T11:42:18;19.00;90.50
64501;DHT22;50874;24.150;-110.320;2023-04-24T11:44:46;19.10;90.40
64501;DHT22;50874;24.150;-110.320;2023-04-24T11:47:13;19.20;90.40
64501;DHT22;50874;24.150;-110.320;2023-04-24T11:49:39;19.20;90.40
64501;DHT22;50874;24.150;-110.320;2023-04-24T11:52:06;19.20;90.20
64501;DHT22;50874;24.150;-110.320;2023-04-24T11:54:33;19.20;90.20
64501;DHT22;50874;24.150;-110.320;2023-04-24T11:56:59;19.20;90.10
64501;DHT22;50874;24.150;-110.320;2023-04-24T11:59:29;19.40;89.90
64501;DHT22;50874;24.150;-110.320;2023-04-24T12:01:56;19.60;89.20
64501;DHT22;50874;24.150;-110.320;2023-04-24T12:04:22;19.60;88.90
64501;DHT22;50874;24.150;-110.320;2023-04-24T12:07:04;19.70;88.40
64501;DHT22;50874;24.150;-110.320;2023-04-24T12:09:47;19.90;87.70
64501;DHT22;50874;24.150;-110.320;2023-04-24T12:12:17;19.90;87.20
64501;DHT22;50874;24.150;-110.320;2023-04-24T12:14:44;19.90;86.80
64501;DHT22;50874;24.150;-110.320;2023-04-24T12:17:11;20.00;86.50
64501;DHT22;50874;24.150;-110.320;2023-04-24T12:19:38;20.00;86.20
64501;DHT22;50874;24.150;-110.320;2023-04-24T12:22:05;20.00;85.80
64501;DHT22;50874;24.150;-110.320;2023-04-24T12:24:32;20.10;85.70
64501;DHT22;50874;24.150;-110.320;2023-04-24T12:26:58;20.10;85.50
64501;DHT22;50874;24.150;-110.320;2023-04-24T12:29:27;20.20;85.70
64501;DHT22;50874;24.150;-110.320;2023-04-24T12:31:54;20.10;86.20
64501;DHT22;50874;24.150;-110.320;2023-04-24T12:34:22;20.20;87.10
64501;DHT22;50874;24.150;-110.320;2023-04-24T12:36:49;20.10;87.10
64501;DHT22;50874;24.150;-110.320;2023-04-24T12:39:19;20.10;87.70
64501;DHT22;50874;24.150;-110.320;2023-04-24T12:41:58;20.10;88.10
64501;DHT22;50874;24.150;-110.320;2023-04-24T12:44:34;20.10;88.90
64501;DHT22;50874;24.150;-110.320;2023-04-24T12:47:02;20.00;89.00
64501;DHT22;50874;24.150;-110.320;2023-04-24T12:49:30;20.00;89.70
64501;DHT22;50874;24.150;-110.320;2023-04-24T12:51:57;20.00;89.80
64501;DHT22;50874;24.150;-110.320;2023-04-24T12:54:23;19.90;89.90
64501;DHT22;50874;24.150;-110.320;2023-04-24T12:56:50;19.90;90.00
64501;DHT22;50874;24.150;-110.320;2023-04-24T12:59:16;20.00;90.40
64501;DHT22;50874;24.150;-110.320;2023-04-24T13:01:43;20.00;90.30
64501;DHT22;50874;24.150;-110.320;2023-04-24T13:04:09;19.90;90.10
64501;DHT22;50874;24.150;-110.320;2023-04-24T13:06:36;19.90;89.70
64501;DHT22;50874;24.150;-110.320;2023-04-24T13:09:02;19.90;89.50
64501;DHT22;50874;24.150;-110.320;2023-04-24T13:11:29;19.90;89.50
64501;DHT22;50874;24.150;-110.320;2023-04-24T13:13:55;19.90;88.80
64501;DHT22;50874;24.150;-110.320;2023-04-24T13:16:22;20.00;88.50
64501;DHT22;50874;24.150;-110.320;2023-04-24T13:18:49;20.00;88.50
64501;DHT22;50874;24.150;-110.320;2023-04-24T13:21:16;20.00;87.60
64501;DHT22;50874;24.150;-110.320;2023-04-24T13:23:42;20.10;87.60
64501;DHT22;50874;24.150;-110.320;2023-04-24T13:26:08;20.20;88.20
64501;DHT22;50874;24.150;-110.320;2023-04-24T13:28:35;20.20;87.20
64501;DHT22;50874;24.150;-110.320;2023-04-24T13:31:01;20.40;87.30
64501;DHT22;50874;24.150;-110.320;2023-04-24T13:33:28;20.70;86.60
64501;DHT22;50874;24.150;-110.320;2023-04-24T13:35:55;21.00;86.40
64501;DHT22;50874;24.150;-110.320;2023-04-24T13:38:21;21.30;85.80
64501;DHT22;50874;24.150;-110.320;2023-04-24T13:40:48;21.70;84.90
64501;DHT22;50874;24.150;-110.320;2023-04-24T13:43:14;22.20;84.30
64501;DHT22;50874;24.150;-110.320;2023-04-24T13:45:41;22.60;83.00
64501;DHT22;50874;24.150;-110.320;2023-04-24T13:48:08;23.10;82.30
64501;DHT22;50874;24.150;-110.320;2023-04-24T13:50:35;23.50;81.20
64501;DHT22;50874;24.150;-110.320;2023-04-24T13:53:02;23.90;80.00
64501;DHT22;50874;24.150;-110.320;2023-04-24T13:55:29;24.20;78.60
64501;DHT22;50874;24.150;-110.320;2023-04-24T13:57:55;24.50;78.40
64501;DHT22;50874;24.150;-110.320;2023-04-24T14:00:22;24.80;77.20
64501;DHT22;50874;24.150;-110.320;2023-04-24T14:02:48;25.20;76.20
64501;DHT22;50874;24.150;-110.320;2023-04-24T14:05:15;25.60;75.20
64501;DHT22;50874;24.150;-110.320;2023-04-24T14:07:41;25.70;73.60
64501;DHT22;50874;24.150;-110.320;2023-04-24T14:10:08;25.90;73.60
64501;DHT22;50874;24.150;-110.320;2023-04-24T14:12:35;26.00;72.10
64501;DHT22;50874;24.150;-110.320;2023-04-24T14:15:02;26.40;71.30
64501;DHT22;50874;24.150;-110.320;2023-04-24T14:17:28;26.70;69.20
64501;DHT22;50874;24.150;-110.320;2023-04-24T14:19:55;27.00;68.30
64501;DHT22;50874;24.150;-110.320;2023-04-24T14:22:22;26.90;67.30
64501;DHT22;50874;24.150;-110.320;2023-04-24T14:24:49;27.20;66.10
64501;DHT22;50874;24.150;-110.320;2023-04-24T14:27:15;27.40;65.40
64501;DHT22;50874;24.150;-110.320;2023-04-24T14:29:42;28.00;64.20
64501;DHT22;50874;24.150;-110.320;2023-04-24T14:32:08;28.40;63.90
64501;DHT22;50874;24.150;-110.320;2023-04-24T14:34:35;28.70;62.40
64501;DHT22;50874;24.150;-110.320;2023-04-24T14:37:01;29.10;61.10
64501;DHT22;50874;24.150;-110.320;2023-04-24T14:39:28;29.40;60.20
64501;DHT22;50874;24.150;-110.320;2023-04-24T14:41:55;29.50;59.30
64501;DHT22;50874;24.150;-110.320;2023-04-24T14:44:22;29.70;58.80
64501;DHT22;50874;24.150;-110.320;2023-04-24T14:46:49;29.90;58.60
64501;DHT22;50874;24.150;-110.320;2023-04-24T14:49:15;29.90;58.30
64501;DHT22;50874;24.150;-110.320;2023-04-24T14:51:42;30.10;58.40
64501;DHT22;50874;24.150;-110.320;2023-04-24T14:54:09;30.20;58.00
64501;DHT22;50874;24.150;-110.320;2023-04-24T14:56:35;30.20;57.50
64501;DHT22;50874;24.150;-110.320;2023-04-24T14:59:02;30.40;57.40
64501;DHT22;50874;24.150;-110.320;2023-04-24T15:01:29;30.50;56.80
64501;DHT22;50874;24.150;-110.320;2023-04-24T15:03:56;30.80;57.80
64501;DHT22;50874;24.150;-110.320;2023-04-24T15:06:22;30.50;57.40
64501;DHT22;50874;24.150;-110.320;2023-04-24T15:08:49;30.70;57.00